Arlee, MT

10:15 PM MDT on August 31, 2015 (GMT -0600)
Grant Creek | | Change Station
CLOSE
Current Station
Personal Weather Station
Location: Missoula, MT
Elevation: 3740 ft
Nearby Weather Stations

Elev 3740 ft 46.96 °N, 114.01 °W | Updated 6 seconds ago

Partly Cloudy
Partly Cloudy
54.9 °F
Feels Like 54.9 °F
N
0.0
Wind Variable Wind from SSE
Gusts 0.0 mph

Today
High -- | Low -- °F
--% Chance of Precip.
Yesterday
High -- | Low -- °F
Precip. -- in
6:53 AM 8:17 PM
Waning Gibbous, 91% visible
Pressure 29.92 in
Visibility 10.0 miles
Clouds Clear
Dew Point 43 °F
Humidity 65%
Rainfall in
Snow Depth Not available.
UV 0 out of 12
Pollen 7.90 out of 12
Air Quality Not available.
Flu Activity Not available.
METAR KMSO 010353Z 31008KT 10SM CLR 13/06 A2993 RMK AO2 SLP131 T01330056
Pressure 29.92 in
Visibility 10.0 miles
Clouds Clear
Dew Point 43 °F
Humidity 65%
Rainfall in
Snow Depth Not available.
UV 0 out of 12
Pollen 7.90 out of 12
Air Quality Not available.
Flu Activity Not available.
METAR KMSO 010353Z 31008KT 10SM CLR 13/06 A2993 RMK AO2 SLP131 T01330056

10-Day Weather Forecast

×

Almanac

Astronomy

Aug. 31, 2015 Rise Set
Actual Time
Civil Twilight
Nautical Twilight
Astronomical Twilight
Moon
Length of Visible Light
Length of Day
Tomorrow will be .
, % of the Moon is Illuminated

Today's Extremes

State Highs State Lows

Community

WunderPhotos

Upload Photos

1,851,477 photos uploaded!

WunderBlogs® & News

Nearby

Air Quality

  Air Quality AQ Index Pollutant
Not available.

Snow Depth

Station Depth Elevation

Earthquake Activity

City Distance Mag. Time & Date
Minimum magnitude displayed is 2.5.

Coastal Water Temperatures

Place Temperature

Stations

Nearby Weather Stations

Station Location Temp. Windchill Dew Point Humidity Wind Precip. Elev Updated Type